sensor_id;sensor_type;location;lat;lon;timestamp;pressure;altitude;pressure_sealevel;temperature;humidity
21361;BME280;10839;43.206;23.550;2022-11-30T00:04:38;97686.72;;;2.82;100.00
21361;BME280;10839;43.206;23.550;2022-11-30T00:09:54;97677.84;;;2.72;100.00
21361;BME280;10839;43.206;23.550;2022-11-30T00:35:41;97688.09;;;3.16;100.00
21361;BME280;10839;43.206;23.550;2022-11-30T00:38:08;97683.38;;;3.29;100.00
21361;BME280;10839;43.206;23.550;2022-11-30T00:40:34;97682.50;;;3.19;100.00
21361;BME280;10839;43.206;23.550;2022-11-30T00:43:00;97692.09;;;3.01;100.00
21361;BME280;10839;43.206;23.550;2022-11-30T00:50:50;97688.53;;;3.21;100.00
21361;BME280;10839;43.206;23.550;2022-11-30T00:53:17;97673.81;;;3.17;100.00
21361;BME280;10839;43.206;23.550;2022-11-30T00:55:44;97672.72;;;3.29;100.00
21361;BME280;10839;43.206;23.550;2022-11-30T00:58:12;97682.94;;;3.33;100.00
21361;BME280;10839;43.206;23.550;2022-11-30T01:00:40;97675.59;;;2.97;100.00
21361;BME280;10839;43.206;23.550;2022-11-30T01:03:06;97682.22;;;3.22;100.00
21361;BME280;10839;43.206;23.550;2022-11-30T01:05:34;97680.81;;;3.18;100.00
21361;BME280;10839;43.206;23.550;2022-11-30T01:08:02;97679.13;;;3.17;100.00
21361;BME280;10839;43.206;23.550;2022-11-30T01:10:28;97676.34;;;3.28;100.00
21361;BME280;10839;43.206;23.550;2022-11-30T01:12:55;97676.38;;;3.47;100.00
21361;BME280;10839;43.206;23.550;2022-11-30T01:15:21;97677.19;;;3.19;100.00
21361;BME280;10839;43.206;23.550;2022-11-30T01:17:48;97676.81;;;2.93;100.00
21361;BME280;10839;43.206;23.550;2022-11-30T01:20:14;97674.09;;;3.14;100.00
21361;BME280;10839;43.206;23.550;2022-11-30T01:22:40;97681.06;;;3.15;100.00
21361;BME280;10839;43.206;23.550;2022-11-30T01:25:07;97670.28;;;3.07;100.00
21361;BME280;10839;43.206;23.550;2022-11-30T01:27:33;97669.34;;;3.17;100.00
21361;BME280;10839;43.206;23.550;2022-11-30T01:29:59;97665.47;;;3.31;100.00
21361;BME280;10839;43.206;23.550;2022-11-30T01:32:26;97661.78;;;3.13;100.00
21361;BME280;10839;43.206;23.550;2022-11-30T01:34:54;97668.97;;;2.92;100.00
21361;BME280;10839;43.206;23.550;2022-11-30T01:37:20;97674.38;;;3.20;100.00
21361;BME280;10839;43.206;23.550;2022-11-30T01:39:47;97670.44;;;3.15;100.00
21361;BME280;10839;43.206;23.550;2022-11-30T01:42:16;97679.13;;;3.17;100.00
21361;BME280;10839;43.206;23.550;2022-11-30T01:47:19;97679.13;;;3.17;100.00
21361;BME280;10839;43.206;23.550;2022-11-30T01:49:55;97669.50;;;3.16;100.00
21361;BME280;10839;43.206;23.550;2022-11-30T01:52:31;97681.41;;;3.31;100.00
21361;BME280;10839;43.206;23.550;2022-11-30T02:04:09;97665.41;;;3.12;100.00
21361;BME280;10839;43.206;23.550;2022-11-30T02:06:36;97660.66;;;3.06;100.00
21361;BME280;10839;43.206;23.550;2022-11-30T02:09:02;97660.38;;;3.09;100.00
21361;BME280;10839;43.206;23.550;2022-11-30T02:31:03;97664.75;;;2.80;100.00
21361;BME280;10839;43.206;23.550;2022-11-30T02:33:33;97662.63;;;2.74;100.00
21361;BME280;10839;43.206;23.550;2022-11-30T02:36:02;97675.72;;;2.96;100.00
21361;BME280;10839;43.206;23.550;2022-11-30T02:38:31;97669.81;;;2.83;100.00
21361;BME280;10839;43.206;23.550;2022-11-30T02:40:58;97671.16;;;2.68;100.00
21361;BME280;10839;43.206;23.550;2022-11-30T02:43:25;97656.09;;;2.78;100.00
21361;BME280;10839;43.206;23.550;2022-11-30T02:46:18;97659.19;;;2.83;100.00
21361;BME280;10839;43.206;23.550;2022-11-30T02:49:01;97646.53;;;2.66;100.00
21361;BME280;10839;43.206;23.550;2022-11-30T02:51:29;97650.13;;;2.64;100.00
21361;BME280;10839;43.206;23.550;2022-11-30T02:53:56;97665.09;;;2.96;100.00
21361;BME280;10839;43.206;23.550;2022-11-30T02:56:23;97655.22;;;2.77;100.00
21361;BME280;10839;43.206;23.550;2022-11-30T02:58:49;97668.78;;;2.44;100.00
21361;BME280;10839;43.206;23.550;2022-11-30T03:01:17;97665.00;;;2.77;100.00
21361;BME280;10839;43.206;23.550;2022-11-30T03:03:43;97668.09;;;2.82;100.00
21361;BME280;10839;43.206;23.550;2022-11-30T03:06:10;97673.09;;;2.66;100.00
21361;BME280;10839;43.206;23.550;2022-11-30T03:08:36;97661.34;;;2.68;100.00
21361;BME280;10839;43.206;23.550;2022-11-30T03:11:03;97673.56;;;2.80;100.00
21361;BME280;10839;43.206;23.550;2022-11-30T03:13:33;97674.47;;;2.70;100.00
21361;BME280;10839;43.206;23.550;2022-11-30T03:16:10;97681.16;;;2.54;100.00
21361;BME280;10839;43.206;23.550;2022-11-30T03:18:37;97682.41;;;2.90;100.00
21361;BME280;10839;43.206;23.550;2022-11-30T03:21:08;97682.84;;;2.95;100.00
21361;BME280;10839;43.206;23.550;2022-11-30T03:23:35;97681.56;;;2.90;100.00
21361;BME280;10839;43.206;23.550;2022-11-30T03:26:02;97683.16;;;2.72;100.00
21361;BME280;10839;43.206;23.550;2022-11-30T03:28:29;97688.28;;;2.94;100.00
21361;BME280;10839;43.206;23.550;2022-11-30T03:30:55;97687.41;;;2.84;100.00
21361;BME280;10839;43.206;23.550;2022-11-30T03:33:23;97685.38;;;2.67;100.00
21361;BME280;10839;43.206;23.550;2022-11-30T03:36:16;97688.03;;;2.97;100.00
21361;BME280;10839;43.206;23.550;2022-11-30T03:38:42;97692.19;;;2.90;100.00
21361;BME280;10839;43.206;23.550;2022-11-30T03:41:11;97692.88;;;2.82;100.00
21361;BME280;10839;43.206;23.550;2022-11-30T03:43:39;97693.78;;;2.72;100.00
21361;BME280;10839;43.206;23.550;2022-11-30T03:46:05;97684.41;;;2.98;100.00
21361;BME280;10839;43.206;23.550;2022-11-30T03:48:31;97693.06;;;3.00;100.00
21361;BME280;10839;43.206;23.550;2022-11-30T03:50:57;97690.50;;;2.79;100.00
21361;BME280;10839;43.206;23.550;2022-11-30T03:53:24;97686.63;;;2.93;100.00
21361;BME280;10839;43.206;23.550;2022-11-30T03:55:59;97687.16;;;2.87;100.00
21361;BME280;10839;43.206;23.550;2022-11-30T03:58:27;97692.13;;;2.71;100.00
21361;BME280;10839;43.206;23.550;2022-11-30T04:01:21;97688.47;;;2.72;100.00
21361;BME280;10839;43.206;23.550;2022-11-30T04:03:50;97694.69;;;2.91;100.00
21361;BME280;10839;43.206;23.550;2022-11-30T04:06:17;97692.13;;;2.71;100.00
21361;BME280;10839;43.206;23.550;2022-11-30T04:08:44;97696.88;;;2.46;100.00
21361;BME280;10839;43.206;23.550;2022-11-30T04:11:11;97700.00;;;2.82;100.00
21361;BME280;10839;43.206;23.550;2022-11-30T04:13:39;97695.50;;;2.73;100.00
21361;BME280;10839;43.206;23.550;2022-11-30T04:16:06;97704.16;;;2.75;100.00
21361;BME280;10839;43.206;23.550;2022-11-30T04:18:34;97698.75;;;2.86;100.00
21361;BME280;10839;43.206;23.550;2022-11-30T04:21:00;97693.03;;;2.90;100.00
21361;BME280;10839;43.206;23.550;2022-11-30T04:23:34;97705.31;;;2.82;100.00
21361;BME280;10839;43.206;23.550;2022-11-30T04:26:05;97695.13;;;2.56;100.00
21361;BME280;10839;43.206;23.550;2022-11-30T04:28:32;97710.53;;;2.93;100.00
21361;BME280;10839;43.206;23.550;2022-11-30T04:30:58;97707.47;;;2.67;100.00
21361;BME280;10839;43.206;23.550;2022-11-30T04:33:25;97713.06;;;2.64;100.00
21361;BME280;10839;43.206;23.550;2022-11-30T04:35:55;97711.16;;;2.76;100.00
21361;BME280;10839;43.206;23.550;2022-11-30T04:38:22;97710.34;;;2.85;100.00
21361;BME280;10839;43.206;23.550;2022-11-30T04:40:49;97711.63;;;2.60;100.00
21361;BME280;10839;43.206;23.550;2022-11-30T04:43:15;97721.63;;;2.47;100.00
21361;BME280;10839;43.206;23.550;2022-11-30T04:45:43;97727.69;;;2.79;100.00
21361;BME280;10839;43.206;23.550;2022-11-30T04:48:09;97724.84;;;2.71;100.00
21361;BME280;10839;43.206;23.550;2022-11-30T04:50:35;97727.00;;;2.56;100.00
21361;BME280;10839;43.206;23.550;2022-11-30T04:53:02;97719.47;;;2.61;100.00
21361;BME280;10839;43.206;23.550;2022-11-30T04:55:28;97721.78;;;2.76;100.00
21361;BME280;10839;43.206;23.550;2022-11-30T04:57:54;97723.38;;;2.57;100.00
21361;BME280;10839;43.206;23.550;2022-11-30T05:00:20;97718.44;;;2.53;100.00
21361;BME280;10839;43.206;23.550;2022-11-30T05:02:47;97736.91;;;2.85;100.00
21361;BME280;10839;43.206;23.550;2022-11-30T05:05:14;97729.03;;;2.74;100.00
21361;BME280;10839;43.206;23.550;2022-11-30T05:07:40;97721.03;;;2.43;100.00
21361;BME280;10839;43.206;23.550;2022-11-30T05:10:07;97723.69;;;2.64;100.00
21361;BME280;10839;43.206;23.550;2022-11-30T05:12:33;97728.69;;;2.57;100.00
21361;BME280;10839;43.206;23.550;2022-11-30T05:15:00;97729.28;;;2.61;100.00
21361;BME280;10839;43.206;23.550;2022-11-30T05:17:26;97718.00;;;2.48;100.00
21361;BME280;10839;43.206;23.550;2022-11-30T05:19:52;97733.31;;;2.86;100.00
21361;BME280;10839;43.206;23.550;2022-11-30T05:22:18;97733.63;;;2.72;100.00
21361;BME280;10839;43.206;23.550;2022-11-30T05:24:44;97735.56;;;2.39;100.00
21361;BME280;10839;43.206;23.550;2022-11-30T05:27:10;97732.69;;;2.73;100.00
21361;BME280;10839;43.206;23.550;2022-11-30T05:29:36;97739.31;;;2.57;100.00
21361;BME280;10839;43.206;23.550;2022-11-30T05:32:02;97739.44;;;2.35;100.00
21361;BME280;10839;43.206;23.550;2022-11-30T05:34:28;97737.97;;;2.42;100.00
21361;BME280;10839;43.206;23.550;2022-11-30T05:36:55;97737.78;;;2.64;100.00
21361;BME280;10839;43.206;23.550;2022-11-30T05:39:21;97740.81;;;2.50;100.00
21361;BME280;10839;43.206;23.550;2022-11-30T05:41:47;97744.00;;;2.44;100.00
21361;BME280;10839;43.206;23.550;2022-11-30T05:46:55;97730.91;;;2.52;100.00
21361;BME280;10839;43.206;23.550;2022-11-30T05:49:22;97724.97;;;2.39;100.00
21361;BME280;10839;43.206;23.550;2022-11-30T05:51:49;97746.06;;;2.41;100.00
21361;BME280;10839;43.206;23.550;2022-11-30T05:54:15;97728.16;;;2.63;100.00
21361;BME280;10839;43.206;23.550;2022-11-30T05:56:42;97734.50;;;2.51;100.00
21361;BME280;10839;43.206;23.550;2022-11-30T05:59:09;97740.88;;;2.39;100.00
21361;BME280;10839;43.206;23.550;2022-11-30T06:01:36;97732.47;;;2.64;100.00
21361;BME280;10839;43.206;23.550;2022-11-30T06:04:05;97725.06;;;2.58;100.00
21361;BME280;10839;43.206;23.550;2022-11-30T06:06:32;97742.06;;;2.77;100.00
21361;BME280;10839;43.206;23.550;2022-11-30T06:08:59;97739.50;;;2.45;100.00
21361;BME280;10839;43.206;23.550;2022-11-30T06:11:27;97749.31;;;2.75;100.00
21361;BME280;10839;43.206;23.550;2022-11-30T06:13:53;97742.16;;;2.66;100.00
21361;BME280;10839;43.206;23.550;2022-11-30T06:16:19;97758.72;;;2.79;100.00
21361;BME280;10839;43.206;23.550;2022-11-30T06:18:46;97755.97;;;2.90;100.00
21361;BME280;10839;43.206;23.550;2022-11-30T06:21:12;97757.56;;;2.72;100.00
21361;BME280;10839;43.206;23.550;2022-11-30T06:23:38;97777.25;;;2.48;100.00
21361;BME280;10839;43.206;23.550;2022-11-30T06:26:06;97767.13;;;2.84;100.00
21361;BME280;10839;43.206;23.550;2022-11-30T06:28:33;97769.88;;;2.73;100.00
21361;BME280;10839;43.206;23.550;2022-11-30T06:31:00;97754.72;;;2.63;100.00
21361;BME280;10839;43.206;23.550;2022-11-30T06:33:27;97751.34;;;2.61;100.00
21361;BME280;10839;43.206;23.550;2022-11-30T06:35:54;97761.69;;;2.64;100.00
21361;BME280;10839;43.206;23.550;2022-11-30T06:38:21;97757.50;;;2.62;100.00
21361;BME280;10839;43.206;23.550;2022-11-30T06:40:47;97767.53;;;2.58;100.00
21361;BME280;10839;43.206;23.550;2022-11-30T06:43:13;97764.88;;;2.79;100.00
21361;BME280;10839;43.206;23.550;2022-11-30T06:45:42;97769.44;;;2.68;100.00
21361;BME280;10839;43.206;23.550;2022-11-30T06:48:10;97780.81;;;2.38;100.00
21361;BME280;10839;43.206;23.550;2022-11-30T06:50:36;97781.28;;;2.63;100.00
21361;BME280;10839;43.206;23.550;2022-11-30T06:53:02;97788.25;;;2.64;100.00
21361;BME280;10839;43.206;23.550;2022-11-30T06:55:29;97783.47;;;2.58;100.00
21361;BME280;10839;43.206;23.550;2022-11-30T06:58:07;97790.41;;;2.71;100.00
21361;BME280;10839;43.206;23.550;2022-11-30T07:00:35;97793.56;;;2.64;100.00
21361;BME280;10839;43.206;23.550;2022-11-30T07:03:02;97800.06;;;2.72;100.00
21361;BME280;10839;43.206;23.550;2022-11-30T07:05:29;97796.75;;;2.58;100.00
21361;BME280;10839;43.206;23.550;2022-11-30T07:07:57;97799.00;;;2.84;100.00
21361;BME280;10839;43.206;23.550;2022-11-30T07:10:24;97793.06;;;2.71;100.00
21361;BME280;10839;43.206;23.550;2022-11-30T07:12:50;97797.22;;;2.63;100.00
21361;BME280;10839;43.206;23.550;2022-11-30T07:15:16;97798.09;;;2.94;100.00
21361;BME280;10839;43.206;23.550;2022-11-30T07:17:42;97804.31;;;2.84;100.00
21361;BME280;10839;43.206;23.550;2022-11-30T07:20:08;97804.28;;;2.53;100.00
21361;BME280;10839;43.206;23.550;2022-11-30T07:22:36;97799.00;;;2.84;100.00
21361;BME280;10839;43.206;23.550;2022-11-30T07:25:02;97805.44;;;2.81;100.00
21361;BME280;10839;43.206;23.550;2022-11-30T07:27:47;97804.47;;;2.61;100.00
21361;BME280;10839;43.206;23.550;2022-11-30T07:30:14;97806.34;;;2.71;100.00
21361;BME280;10839;43.206;23.550;2022-11-30T07:32:40;97809.50;;;2.64;100.00
21361;BME280;10839;43.206;23.550;2022-11-30T07:35:07;97807.31;;;2.70;100.00
21361;BME280;10839;43.206;23.550;2022-11-30T07:37:33;97801.09;;;2.80;100.00
21361;BME280;10839;43.206;23.550;2022-11-30T07:39:59;97812.56;;;2.81;100.00
21361;BME280;10839;43.206;23.550;2022-11-30T07:42:25;97808.47;;;2.77;100.00
21361;BME280;10839;43.206;23.550;2022-11-30T07:44:52;97810.84;;;2.49;100.00
21361;BME280;10839;43.206;23.550;2022-11-30T07:47:19;97808.22;;;2.80;100.00
21361;BME280;10839;43.206;23.550;2022-11-30T07:49:46;97804.88;;;2.78;100.00
21361;BME280;10839;43.206;23.550;2022-11-30T07:52:12;97812.63;;;2.70;100.00
21361;BME280;10839;43.206;23.550;2022-11-30T07:54:38;97814.91;;;2.74;100.00
21361;BME280;10839;43.206;23.550;2022-11-30T07:57:04;97818.59;;;2.83;100.00
21361;BME280;10839;43.206;23.550;2022-11-30T07:59:31;97814.44;;;2.48;100.00
21361;BME280;10839;43.206;23.550;2022-11-30T08:01:58;97819.25;;;2.54;100.00
21361;BME280;10839;43.206;23.550;2022-11-30T08:04:40;97811.31;;;2.85;100.00
21361;BME280;10839;43.206;23.550;2022-11-30T08:07:06;97814.72;;;2.45;100.00
21361;BME280;10839;43.206;23.550;2022-11-30T08:09:32;97818.34;;;2.44;100.00
21361;BME280;10839;43.206;23.550;2022-11-30T08:11:59;97815.50;;;2.78;100.00
21361;BME280;10839;43.206;23.550;2022-11-30T08:14:25;97814.19;;;2.93;100.00
21361;BME280;10839;43.206;23.550;2022-11-30T08:16:51;97814.25;;;2.82;100.00
21361;BME280;10839;43.206;23.550;2022-11-30T08:19:17;97816.38;;;3.18;100.00
21361;BME280;10839;43.206;23.550;2022-11-30T08:21:43;97817.47;;;3.06;100.00
21361;BME280;10839;43.206;23.550;2022-11-30T08:24:10;97817.75;;;3.03;100.00
21361;BME280;10839;43.206;23.550;2022-11-30T08:26:38;97815.06;;;3.33;100.00
21361;BME280;10839;43.206;23.550;2022-11-30T08:29:04;97819.03;;;3.18;100.00
21361;BME280;10839;43.206;23.550;2022-11-30T08:31:34;97821.53;;;3.10;100.00
21361;BME280;10839;43.206;23.550;2022-11-30T08:34:05;97812.66;;;3.30;100.00
21361;BME280;10839;43.206;23.550;2022-11-30T08:36:33;97801.13;;;3.10;100.00
21361;BME280;10839;43.206;23.550;2022-11-30T08:39:00;97818.28;;;3.06;100.00
21361;BME280;10839;43.206;23.550;2022-11-30T08:41:27;97818.25;;;3.27;100.00
21361;BME280;10839;43.206;23.550;2022-11-30T08:43:53;97812.06;;;3.17;100.00
21361;BME280;10839;43.206;23.550;2022-11-30T08:46:20;97819.00;;;3.08;100.00
21361;BME280;10839;43.206;23.550;2022-11-30T08:48:47;97812.31;;;3.44;100.00
21361;BME280;10839;43.206;23.550;2022-11-30T08:51:15;97807.31;;;3.60;100.00
21361;BME280;10839;43.206;23.550;2022-11-30T08:53:42;97807.31;;;3.20;100.00
21361;BME280;10839;43.206;23.550;2022-11-30T08:56:14;97809.66;;;3.14;100.00
21361;BME280;10839;43.206;23.550;2022-11-30T08:58:41;97815.25;;;3.41;100.00
21361;BME280;10839;43.206;23.550;2022-11-30T09:01:14;97807.94;;;3.43;100.00
21361;BME280;10839;43.206;23.550;2022-11-30T09:03:41;97805.34;;;3.13;100.00
21361;BME280;10839;43.206;23.550;2022-11-30T09:06:12;97805.13;;;3.35;100.00
21361;BME280;10839;43.206;23.550;2022-11-30T09:08:44;97804.31;;;3.34;100.00
21361;BME280;10839;43.206;23.550;2022-11-30T09:11:16;97803.47;;;3.04;100.00
21361;BME280;10839;43.206;23.550;2022-11-30T09:13:53;97799.00;;;3.44;100.00
21361;BME280;10839;43.206;23.550;2022-11-30T09:16:29;97796.34;;;3.44;100.00
21361;BME280;10839;43.206;23.550;2022-11-30T09:19:09;97794.22;;;3.38;100.00
21361;BME280;10839;43.206;23.550;2022-11-30T09:21:35;97793.50;;;3.75;100.00
21361;BME280;10839;43.206;23.550;2022-11-30T09:24:01;97790.06;;;3.45;100.00
21361;BME280;10839;43.206;23.550;2022-11-30T09:26:27;97799.00;;;3.44;100.00
21361;BME280;10839;43.206;23.550;2022-11-30T09:28:53;97794.59;;;3.73;100.00
21361;BME280;10839;43.206;23.550;2022-11-30T09:31:23;97794.28;;;3.57;100.00
21361;BME280;10839;43.206;23.550;2022-11-30T09:33:50;97796.19;;;3.36;100.00
21361;BME280;10839;43.206;23.550;2022-11-30T09:36:19;97798.25;;;3.72;100.00
21361;BME280;10839;43.206;23.550;2022-11-30T09:38:46;97794.59;;;3.73;100.00
21361;BME280;10839;43.206;23.550;2022-11-30T09:46:41;97806.06;;;3.64;100.00
21361;BME280;10839;43.206;23.550;2022-11-30T09:49:14;97804.06;;;3.47;100.00
21361;BME280;10839;43.206;23.550;2022-11-30T09:51:48;97802.44;;;3.65;100.00
21361;BME280;10839;43.206;23.550;2022-11-30T09:57:30;97791.19;;;3.52;100.00
21361;BME280;10839;43.206;23.550;2022-11-30T10:00:05;97783.13;;;3.72;100.00
21361;BME280;10839;43.206;23.550;2022-11-30T10:02:40;97793.41;;;3.47;100.00
21361;BME280;10839;43.206;23.550;2022-11-30T10:05:25;97788.47;;;3.82;100.00
21361;BME280;10839;43.206;23.550;2022-11-30T10:10:54;97794.06;;;3.30;100.00
21361;BME280;10839;43.206;23.550;2022-11-30T10:27:50;97794.31;;;3.66;100.00
21361;BME280;10839;43.206;23.550;2022-11-30T10:30:20;97805.72;;;3.48;100.00
21361;BME280;10839;43.206;23.550;2022-11-30T10:32:51;97804.06;;;3.47;100.00
21361;BME280;10839;43.206;23.550;2022-11-30T10:35:29;97794.59;;;3.73;100.00
21361;BME280;10839;43.206;23.550;2022-11-30T10:38:01;97796.50;;;3.52;100.00
21361;BME280;10839;43.206;23.550;2022-11-30T10:40:45;97796.44;;;3.33;100.00
21361;BME280;10839;43.206;23.550;2022-11-30T10:43:31;97800.72;;;3.54;100.00
21361;BME280;10839;43.206;23.550;2022-11-30T10:46:03;97796.94;;;3.47;100.00
21361;BME280;10839;43.206;23.550;2022-11-30T10:50:57;97794.28;;;3.57;100.00
21361;BME280;10839;43.206;23.550;2022-11-30T10:53:23;97786.16;;;3.58;100.00
21361;BME280;10839;43.206;23.550;2022-11-30T10:55:59;97793.53;;;3.36;100.00
21361;BME280;10839;43.206;23.550;2022-11-30T10:58:37;97794.22;;;3.77;100.00
21361;BME280;10839;43.206;23.550;2022-11-30T11:01:06;97791.19;;;3.52;100.00
21361;BME280;10839;43.206;23.550;2022-11-30T11:03:33;97786.44;;;3.46;100.00
21361;BME280;10839;43.206;23.550;2022-11-30T11:06:20;97786.34;;;3.76;100.00
21361;BME280;10839;43.206;23.550;2022-11-30T11:08:48;97787.31;;;3.56;100.00
21361;BME280;10839;43.206;23.550;2022-11-30T11:11:36;97790.97;;;3.74;100.00
21361;BME280;10839;43.206;23.550;2022-11-30T11:16:53;97787.66;;;3.42;100.00
21361;BME280;10839;43.206;23.550;2022-11-30T11:19:40;97778.63;;;3.63;100.00
21361;BME280;10839;43.206;23.550;2022-11-30T11:24:53;97790.63;;;3.58;100.00
21361;BME280;10839;43.206;23.550;2022-11-30T11:27:27;97772.78;;;3.79;100.00
21361;BME280;10839;43.206;23.550;2022-11-30T11:33:04;97767.38;;;3.41;100.00
21361;BME280;10839;43.206;23.550;2022-11-30T11:35:49;97772.75;;;3.69;100.00
21361;BME280;10839;43.206;23.550;2022-11-30T11:41:19;97771.56;;;3.34;100.00
21361;BME280;10839;43.206;23.550;2022-11-30T11:46:25;97788.38;;;3.44;100.00
21361;BME280;10839;43.206;23.550;2022-11-30T11:49:01;97785.56;;;3.36;100.00
21361;BME280;10839;43.206;23.550;2022-11-30T11:51:37;97775.25;;;3.52;100.00
21361;BME280;10839;43.206;23.550;2022-11-30T11:54:23;97775.25;;;3.52;100.00
21361;BME280;10839;43.206;23.550;2022-11-30T11:57:14;97766.94;;;3.36;100.00
21361;BME280;10839;43.206;23.550;2022-11-30T12:00:02;97770.50;;;3.55;100.00
21361;BME280;10839;43.206;23.550;2022-11-30T12:08:12;97761.38;;;3.58;100.00
21361;BME280;10839;43.206;23.550;2022-11-30T12:13:18;97762.94;;;3.60;100.00
21361;BME280;10839;43.206;23.550;2022-11-30T12:15:59;97765.75;;;3.59;100.00
21361;BME280;10839;43.206;23.550;2022-11-30T12:21:36;97779.75;;;3.70;100.00
21361;BME280;10839;43.206;23.550;2022-11-30T12:24:21;97778.59;;;3.54;100.00
21361;BME280;10839;43.206;23.550;2022-11-30T12:29:59;97773.88;;;3.86;100.00
21361;BME280;10839;43.206;23.550;2022-11-30T12:32:35;97766.81;;;3.47;100.00
21361;BME280;10839;43.206;23.550;2022-11-30T12:38:35;97770.50;;;3.65;100.00
21361;BME280;10839;43.206;23.550;2022-11-30T12:41:14;97770.91;;;3.51;100.00
21361;BME280;10839;43.206;23.550;2022-11-30T12:44:05;97770.81;;;3.81;100.00
21361;BME280;10839;43.206;23.550;2022-11-30T12:52:51;97776.72;;;3.94;100.00
21361;BME280;10839;43.206;23.550;2022-11-30T13:06:29;97791.25;;;3.71;100.00
21361;BME280;10839;43.206;23.550;2022-11-30T13:11:53;97787.53;;;3.53;100.00
21361;BME280;10839;43.206;23.550;2022-11-30T13:14:22;97787.06;;;3.78;100.00
21361;BME280;10839;43.206;23.550;2022-11-30T13:16:57;97792.78;;;3.64;100.00
21361;BME280;10839;43.206;23.550;2022-11-30T13:22:03;97789.03;;;3.85;100.00
21361;BME280;10839;43.206;23.550;2022-11-30T13:24:38;97795.44;;;3.64;100.00
21361;BME280;10839;43.206;23.550;2022-11-30T13:27:38;97785.66;;;3.74;100.00
21361;BME280;10839;43.206;23.550;2022-11-30T13:30:15;97788.41;;;3.63;100.00
21361;BME280;10839;43.206;23.550;2022-11-30T13:32:44;97782.81;;;3.56;100.00
21361;BME280;10839;43.206;23.550;2022-11-30T13:38:11;97782.84;;;3.66;100.00
21361;BME280;10839;43.206;23.550;2022-11-30T13:41:41;97789.44;;;3.32;100.00
21361;BME280;10839;43.206;23.550;2022-11-30T13:47:55;97788.69;;;3.60;100.00
21361;BME280;10839;43.206;23.550;2022-11-30T14:17:12;97769.59;;;3.36;100.00
21361;BME280;10839;43.206;23.550;2022-11-30T14:19:45;97768.66;;;3.16;100.00
21361;BME280;10839;43.206;23.550;2022-11-30T14:22:13;97764.00;;;3.39;100.00
21361;BME280;10839;43.206;23.550;2022-11-30T14:24:41;97774.72;;;3.28;100.00
21361;BME280;10839;43.206;23.550;2022-11-30T14:27:15;97767.25;;;3.03;100.00
21361;BME280;10839;43.206;23.550;2022-11-30T14:29:42;97763.78;;;2.91;100.00
21361;BME280;10839;43.206;23.550;2022-11-30T14:32:15;97771.53;;;3.24;100.00
21361;BME280;10839;43.206;23.550;2022-11-30T14:34:50;97766.66;;;3.39;100.00
21361;BME280;10839;43.206;23.550;2022-11-30T14:37:24;97772.59;;;3.12;100.00
21361;BME280;10839;43.206;23.550;2022-11-30T14:39:52;97770.19;;;3.49;100.00
21361;BME280;10839;43.206;23.550;2022-11-30T14:42:26;97779.13;;;3.48;100.00
21361;BME280;10839;43.206;23.550;2022-11-30T14:44:53;97784.41;;;3.29;100.00
21361;BME280;10839;43.206;23.550;2022-11-30T14:49:52;97780.56;;;3.61;100.00
21361;BME280;10839;43.206;23.550;2022-11-30T14:55:27;97781.31;;;3.24;100.00
21361;BME280;10839;43.206;23.550;2022-11-30T14:58:04;97779.38;;;3.35;100.00
21361;BME280;10839;43.206;23.550;2022-11-30T15:00:37;97782.34;;;3.42;100.00
21361;BME280;10839;43.206;23.550;2022-11-30T15:03:04;97781.34;;;3.43;100.00
21361;BME280;10839;43.206;23.550;2022-11-30T15:05:42;97779.38;;;3.26;100.00
21361;BME280;10839;43.206;23.550;2022-11-30T15:08:14;97781.41;;;3.62;100.00
21361;BME280;10839;43.206;23.550;2022-11-30T15:10:48;97789.34;;;3.43;100.00
21361;BME280;10839;43.206;23.550;2022-11-30T15:13:15;97791.34;;;3.50;100.00
21361;BME280;10839;43.206;23.550;2022-11-30T15:15:53;97788.41;;;3.63;100.00
21361;BME280;10839;43.206;23.550;2022-11-30T15:18:24;97794.72;;;3.62;100.00
21361;BME280;10839;43.206;23.550;2022-11-30T15:21:03;97791.75;;;3.46;100.00
21361;BME280;10839;43.206;23.550;2022-11-30T15:23:32;97804.16;;;3.36;100.00
21361;BME280;10839;43.206;23.550;2022-11-30T15:26:03;97792.06;;;3.62;100.00
21361;BME280;10839;43.206;23.550;2022-11-30T15:28:38;97791.63;;;3.57;100.00
21361;BME280;10839;43.206;23.550;2022-11-30T15:31:08;97795.91;;;3.39;100.00
21361;BME280;10839;43.206;23.550;2022-11-30T15:33:46;97795.97;;;3.58;100.00
21361;BME280;10839;43.206;23.550;2022-11-30T15:36:13;97801.22;;;3.78;100.00
21361;BME280;10839;43.206;23.550;2022-11-30T15:38:41;97797.75;;;3.48;100.00
21361;BME280;10839;43.206;23.550;2022-11-30T15:41:19;97805.09;;;3.25;100.00
21361;BME280;10839;43.206;23.550;2022-11-30T15:43:51;97808.97;;;3.21;100.00
21361;BME280;10839;43.206;23.550;2022-11-30T15:53:45;97812.41;;;3.33;100.00
21361;BME280;10839;43.206;23.550;2022-11-30T15:55:43;97814.84;;;3.55;100.00
21361;BME280;10839;43.206;23.550;2022-11-30T15:58:29;97814.59;;;3.58;100.00
21361;BME280;10839;43.206;23.550;2022-11-30T16:01:12;97817.09;;;3.50;100.00
21361;BME280;10839;43.206;23.550;2022-11-30T16:06:24;97818.13;;;3.68;100.00
21361;BME280;10839;43.206;23.550;2022-11-30T16:08:51;97808.31;;;3.59;100.00
21361;BME280;10839;43.206;23.550;2022-11-30T16:11:18;97813.56;;;3.49;100.00
21361;BME280;10839;43.206;23.550;2022-11-30T16:13:45;97807.94;;;3.33;100.00
21361;BME280;10839;43.206;23.550;2022-11-30T16:16:16;97814.59;;;3.58;100.00
21361;BME280;10839;43.206;23.550;2022-11-30T16:18:44;97806.34;;;3.61;100.00
21361;BME280;10839;43.206;23.550;2022-11-30T16:21:12;97804.94;;;3.57;100.00
21361;BME280;10839;43.206;23.550;2022-11-30T16:23:46;97812.97;;;3.36;100.00
21361;BME280;10839;43.206;23.550;2022-11-30T16:26:15;97811.53;;;3.62;100.00